Time;durP1;ratioP1;P1;durP2;ratioP2;P2;SDS_P1;SDS_P2;PMS_P1;PMS_P2;Temp;Humidity;BMP_temperature;BMP_pressure;BME280_temperature;BME280_humidity;BME280_pressure;Samples;Min_cycle;Max_cycle;Signal;HPM_P1;HPM_P2
2021/11/23 00:00:51;;;;;;;;;;;0.60;99.90;;;;;;5093153;28;19904;-87
2021/11/23 00:03:18;;;;;;;;;;;3.60;99.90;;;;;;5093325;28;20412;-87
2021/11/23 00:05:45;;;;;;;;;;;0.90;99.90;;;;;;5093112;28;20001;-88
2021/11/23 00:08:10;;;;;;;;;;;1.00;99.90;;;;;;5093047;28;20375;-89
2021/11/23 00:10:37;;;;;;;;;;;1.20;99.90;;;;;;5093213;28;19957;-88
2021/11/23 00:13:02;;;;;;;;;;;1.20;99.90;;;;;;5093231;28;20378;-88
2021/11/23 00:15:27;;;;;;;;;;;0.80;99.90;;;;;;5093335;28;19905;-88
2021/11/23 00:17:53;;;;;;;;;;;0.90;99.90;;;;;;5092982;28;20377;-88
2021/11/23 00:20:18;;;;;;;;;;;0.80;99.90;;;;;;5093048;28;20424;-88
2021/11/23 00:22:44;;;;;;;;;;;0.90;99.90;;;;;;5091661;28;20017;-89
2021/11/23 00:25:09;;;;;;;;;;;0.40;99.90;;;;;;5092932;28;19919;-89
2021/11/23 00:27:37;;;;;;;;;;;0.50;99.90;;;;;;5097064;28;19958;-87
2021/11/23 00:30:03;;;;;;;;;;;0.70;99.90;;;;;;5095857;28;19915;-87
2021/11/23 00:32:29;;;;;;;;;;;0.80;99.90;;;;;;5097095;28;20282;-88
2021/11/23 00:34:54;;;;;;;;;;;0.80;99.90;;;;;;5096972;28;19908;-86
2021/11/23 00:37:20;;;;;;;;;;;0.90;99.90;;;;;;5096673;28;19904;-88
2021/11/23 00:39:45;;;;;;;;;;;0.60;99.90;;;;;;5097015;28;20002;-88
2021/11/23 00:42:11;;;;;;;;;;;0.70;99.90;;;;;;5096720;28;20317;-87
2021/11/23 00:44:36;;;;;;;;;;;0.70;99.90;;;;;;5096802;28;19912;-87
2021/11/23 00:50:07;;;;;;;;;;;0.90;99.90;;;;;;5096478;28;19915;-88
2021/11/23 00:52:32;;;;;;;;;;;0.70;99.90;;;;;;5096691;28;19911;-87
2021/11/23 00:54:58;;;;;;;;;;;0.30;99.90;;;;;;5096622;28;19904;-87
2021/11/23 00:57:23;;;;;;;;;;;0.60;99.90;;;;;;5095281;28;20286;-87
2021/11/23 00:59:49;;;;;;;;;;;0.60;99.90;;;;;;5096580;28;19947;-87
2021/11/23 01:02:14;;;;;;;;;;;1.50;99.90;;;;;;5096167;28;19969;-88
2021/11/23 01:04:40;;;;;;;;;;;0.40;99.90;;;;;;5096327;28;19973;-87
2021/11/23 01:07:05;;;;;;;;;;;1.30;99.90;;;;;;5095113;28;19908;-87
2021/11/23 01:09:31;;;;;;;;;;;0.30;99.90;;;;;;5096076;28;19938;-87
2021/11/23 01:11:56;;;;;;;;;;;0.30;99.90;;;;;;5094972;28;20344;-87
2021/11/23 01:14:22;;;;;;;;;;;0.60;99.90;;;;;;5094965;28;19904;-87
2021/11/23 01:16:48;;;;;;;;;;;0.30;99.90;;;;;;5094803;28;19908;-87
2021/11/23 01:19:17;;;;;;;;;;;0.40;99.90;;;;;;5095932;28;20016;-87
2021/11/23 01:21:43;;;;;;;;;;;0.50;99.90;;;;;;5094597;28;20409;-87
2021/11/23 01:24:10;;;;;;;;;;;0.30;99.90;;;;;;5095968;28;20255;-87
2021/11/23 01:26:36;;;;;;;;;;;0.20;99.90;;;;;;5096012;28;19904;-87
2021/11/23 01:29:01;;;;;;;;;;;0.70;99.90;;;;;;5095869;28;19911;-87
2021/11/23 01:31:27;;;;;;;;;;;0.40;99.90;;;;;;5095794;28;20327;-88
2021/11/23 01:33:52;;;;;;;;;;;0.10;99.90;;;;;;5094406;28;19908;-87
2021/11/23 01:36:18;;;;;;;;;;;0.00;99.90;;;;;;5095672;28;20343;-88
2021/11/23 01:38:44;;;;;;;;;;;0.00;99.90;;;;;;5095906;28;20413;-88
2021/11/23 01:41:09;;;;;;;;;;;0.30;99.90;;;;;;5095764;28;19904;-87
2021/11/23 01:43:35;;;;;;;;;;;0.20;99.90;;;;;;5095615;28;19995;-88
2021/11/23 01:46:00;;;;;;;;;;;0.10;99.90;;;;;;5095671;28;19906;-88
2021/11/23 01:48:26;;;;;;;;;;;0.20;99.90;;;;;;5094391;28;19904;-88
2021/11/23 01:50:52;;;;;;;;;;;0.20;99.90;;;;;;5095634;28;20306;-88
2021/11/23 01:53:17;;;;;;;;;;;0.30;99.90;;;;;;5095533;28;19903;-87
2021/11/23 01:55:43;;;;;;;;;;;0.80;99.90;;;;;;5095547;28;19908;-87
2021/11/23 02:01:11;;;;;;;;;;;2.10;99.90;;;;;;5094937;28;19911;-88
2021/11/23 02:03:38;;;;;;;;;;;0.30;99.90;;;;;;5093876;28;19904;-87
2021/11/23 02:06:04;;;;;;;;;;;0.30;99.90;;;;;;5093983;28;20270;-86
2021/11/23 02:08:29;;;;;;;;;;;0.50;99.90;;;;;;5094259;28;19920;-87
2021/11/23 02:10:55;;;;;;;;;;;0.00;99.90;;;;;;5094842;28;20414;-87
2021/11/23 02:13:21;;;;;;;;;;;0.10;99.90;;;;;;5095313;28;19904;-88
2021/11/23 02:15:46;;;;;;;;;;;0.10;99.90;;;;;;5094772;28;20343;-88
2021/11/23 02:18:12;;;;;;;;;;;0.10;99.90;;;;;;5094210;28;20049;-88
2021/11/23 02:20:38;;;;;;;;;;;0.30;99.90;;;;;;5094155;28;19908;-88
2021/11/23 02:23:04;;;;;;;;;;;0.10;99.90;;;;;;5092880;28;19911;-86
2021/11/23 02:25:29;;;;;;;;;;;0.20;99.90;;;;;;5094047;28;19973;-86
2021/11/23 02:27:55;;;;;;;;;;;0.80;99.90;;;;;;5093559;28;19957;-87
2021/11/23 02:30:20;;;;;;;;;;;0.20;99.90;;;;;;5094691;28;19904;-87
2021/11/23 02:32:53;;;;;;;;;;;0.50;99.90;;;;;;5094735;28;19942;-88
2021/11/23 02:35:20;;;;;;;;;;;0.40;99.90;;;;;;5093379;28;19908;-88
2021/11/23 02:37:47;;;;;;;;;;;0.20;99.90;;;;;;5094474;28;19904;-88
2021/11/23 02:40:13;;;;;;;;;;;0.10;99.90;;;;;;5094553;28;19908;-88
2021/11/23 02:42:39;;;;;;;;;;;0.30;99.90;;;;;;5093318;28;20420;-88
2021/11/23 02:45:05;;;;;;;;;;;0.40;99.90;;;;;;5094250;28;19919;-87
2021/11/23 02:47:31;;;;;;;;;;;0.30;99.90;;;;;;5093110;28;20358;-88
2021/11/23 02:49:56;;;;;;;;;;;-0.20;99.90;;;;;;5093795;28;19950;-88
2021/11/23 02:52:22;;;;;;;;;;;0.00;99.90;;;;;;5094360;28;20202;-88
2021/11/23 02:54:54;;;;;;;;;;;0.30;99.90;;;;;;5094288;28;19904;-88
2021/11/23 02:57:27;;;;;;;;;;;0.60;99.90;;;;;;5094239;28;19911;-87
2021/11/23 02:59:53;;;;;;;;;;;0.80;99.90;;;;;;5094244;28;19915;-88
2021/11/23 03:02:18;;;;;;;;;;;0.30;99.90;;;;;;5092892;28;19904;-88
2021/11/23 03:04:48;;;;;;;;;;;0.60;99.90;;;;;;5092844;28;19912;-88
2021/11/23 03:07:14;;;;;;;;;;;0.40;99.90;;;;;;5092048;28;19903;-88
2021/11/23 03:09:40;;;;;;;;;;;1.10;99.90;;;;;;5072442;28;19916;-88
2021/11/23 03:12:05;;;;;;;;;;;0.80;99.90;;;;;;5072358;28;20335;-87
2021/11/23 03:14:31;;;;;;;;;;;1.10;99.90;;;;;;5072554;28;19905;-87
2021/11/23 03:20:00;;;;;;;;;;;1.30;99.90;;;;;;5073909;28;19911;-88
2021/11/23 03:22:25;;;;;;;;;;;1.80;99.90;;;;;;5073648;28;19914;-88
2021/11/23 03:24:51;;;;;;;;;;;2.20;99.90;;;;;;5072023;28;20375;-88
2021/11/23 03:27:17;;;;;;;;;;;1.20;99.90;;;;;;5072197;28;20275;-88
2021/11/23 03:29:43;;;;;;;;;;;1.20;99.90;;;;;;5072220;28;19991;-88
2021/11/23 03:32:09;;;;;;;;;;;1.20;99.90;;;;;;5073447;28;19911;-88
2021/11/23 03:34:38;;;;;;;;;;;1.40;99.90;;;;;;5072134;28;19904;-88
2021/11/23 03:37:05;;;;;;;;;;;1.30;99.90;;;;;;5073230;28;19910;-88
2021/11/23 03:39:31;;;;;;;;;;;1.80;99.90;;;;;;5075988;28;19908;-88
2021/11/23 03:41:56;;;;;;;;;;;1.30;99.90;;;;;;5079616;28;19950;-88
2021/11/23 03:44:22;;;;;;;;;;;1.60;99.90;;;;;;5081458;28;19919;-88
2021/11/23 03:46:47;;;;;;;;;;;1.30;99.90;;;;;;5082238;28;19905;-88
2021/11/23 03:49:13;;;;;;;12.60;10.53;;;;;;;;;;5081124;28;20593;-88
2021/11/23 03:51:39;;;;;;;;;;;1.70;99.90;;;;;;5081894;28;20040;-89
2021/11/23 03:54:04;;;;;;;;;;;2.20;99.90;;;;;;5082255;28;20422;-88
2021/11/23 03:56:30;;;;;;;;;;;1.90;99.90;;;;;;5084085;28;19999;-87
2021/11/23 03:58:55;;;;;;;;;;;2.00;99.90;;;;;;5093659;28;19912;-87
2021/11/23 04:01:21;;;;;;;;;;;2.80;99.90;;;;;;5091974;28;19904;-87
2021/11/23 04:03:46;;;;;;;;;;;1.70;99.90;;;;;;5091940;28;19912;-88
2021/11/23 04:06:11;;;;;;;;;;;1.90;99.90;;;;;;5093417;28;19904;-87
2021/11/23 04:08:37;;;;;;;;;;;2.00;99.90;;;;;;5093155;28;20337;-88
2021/11/23 04:11:02;;;;;;;;;;;1.50;99.90;;;;;;5092245;28;19915;-88
2021/11/23 04:13:28;;;;;;;;;;;1.70;99.90;;;;;;5093344;28;20038;-88
2021/11/23 04:15:53;;;;;;;;;;;1.80;99.90;;;;;;5093413;28;19904;-88
2021/11/23 04:18:19;;;;;;;;;;;2.10;99.90;;;;;;5093261;28;19948;-88
2021/11/23 04:20:44;;;;;;;;;;;2.10;99.90;;;;;;5093298;28;19911;-89
2021/11/23 04:23:10;;;;;;;;;;;1.30;99.90;;;;;;5093219;28;19910;-88
2021/11/23 04:25:35;;;;;;;;;;;2.20;99.90;;;;;;5091771;28;19950;-88
2021/11/23 04:28:04;;;;;;;;;;;1.90;99.90;;;;;;5093289;28;19930;-88
2021/11/23 04:33:47;;;;;;;;;;;2.30;99.90;;;;;;5093693;28;19927;-88
2021/11/23 04:36:13;;;;;;;;;;;2.50;99.90;;;;;;5093133;28;19920;-88
2021/11/23 04:38:38;;;;;;;;;;;2.30;99.90;;;;;;5093222;28;19987;-88
2021/11/23 04:41:04;;;;;;;;;;;2.00;99.90;;;;;;5091869;28;19904;-87
2021/11/23 04:43:29;;;;;;;;;;;2.30;99.90;;;;;;5091844;28;19926;-88
2021/11/23 04:45:56;;;;;;;;;;;1.90;99.90;;;;;;5091565;28;20034;-87
2021/11/23 04:48:21;;;;;;;;;;;2.50;99.90;;;;;;5091729;28;19911;-88
2021/11/23 04:50:47;;;;;;;;;;;2.50;99.90;;;;;;5092998;28;19908;-88
2021/11/23 04:53:12;;;;;;;;;;;2.20;99.90;;;;;;5092753;28;19931;-88
2021/11/23 04:55:37;;;;;;;;;;;2.60;99.90;;;;;;5091621;28;19995;-88
2021/11/23 04:58:03;;;;;;;;;;;2.30;99.90;;;;;;5092843;28;19904;-88
2021/11/23 05:00:28;;;;;;;;;;;3.20;99.90;;;;;;5089338;28;20077;-88
2021/11/23 05:02:54;;;;;;;;;;;3.70;99.90;;;;;;5087545;28;19912;-88
2021/11/23 05:05:19;;;;;;;;;;;2.40;99.90;;;;;;5092762;28;19912;-87
2021/11/23 05:07:45;;;;;;;;;;;2.20;99.90;;;;;;5091671;28;19908;-88
2021/11/23 05:10:12;;;;;;;;;;;2.40;99.90;;;;;;5091980;28;19912;-88
2021/11/23 05:12:38;;;;;;;;;;;2.60;99.90;;;;;;5095543;28;19908;-88
2021/11/23 05:15:04;;;;;;;;;;;2.50;99.90;;;;;;5096685;28;20316;-89
2021/11/23 05:17:30;;;;;;;;;;;2.70;99.90;;;;;;5096429;28;20371;-86
2021/11/23 05:19:55;;;;;;;;;;;2.50;99.90;;;;;;5096393;28;19946;-89
2021/11/23 05:22:21;;;;;;;;;;;2.30;99.90;;;;;;5096388;28;19908;-88
2021/11/23 05:24:46;;;;;;;;;;;2.60;99.90;;;;;;5096338;28;19916;-87
2021/11/23 05:27:11;;;;;;;;;;;2.80;99.90;;;;;;5096428;28;20577;-88
2021/11/23 05:29:37;;;;;;;;;;;2.90;99.90;;;;;;5096345;28;19904;-88
2021/11/23 05:32:03;;;;;;;;;;;2.90;99.90;;;;;;5095637;28;19908;-87
2021/11/23 05:34:28;;;;;;;;;;;2.90;99.90;;;;;;5086506;28;19912;-88
2021/11/23 05:36:53;;;;;;;;;;;2.60;99.90;;;;;;5075860;28;19910;-86
2021/11/23 05:39:19;;;;;;;;;;;2.90;99.90;;;;;;5075695;28;19904;-88
2021/11/23 05:41:45;;;;;;;;;;;3.10;99.90;;;;;;5074730;28;19904;-88
2021/11/23 05:47:13;;;;;;;;;;;3.60;99.90;;;;;;5076278;28;20321;-88
2021/11/23 05:49:39;;;;;;;26.53;20.60;;;3.00;99.90;;;;;;5074605;28;20396;-88
2021/11/23 05:52:04;;;;;;;25.02;20.67;;;3.00;99.90;;;;;;5073082;28;20384;-85
2021/11/23 05:54:30;;;;;;;24.98;20.77;;;3.40;99.90;;;;;;5072936;28;20392;-87
2021/11/23 05:56:55;;;;;;;29.15;21.83;;;3.30;99.90;;;;;;5074960;28;20398;-89
2021/11/23 05:59:21;;;;;;;25.77;19.85;;;3.40;99.90;;;;;;5074472;28;20383;-87
2021/11/23 06:01:47;;;;;;;26.90;20.77;;;3.20;99.90;;;;;;4735786;28;10000489;-88
2021/11/23 06:04:12;;;;;;;26.60;21.30;;;3.30;99.90;;;;;;5090579;28;20467;-88
2021/11/23 06:06:38;;;;;;;26.37;21.67;;;;;;;;;;5091592;28;20398;-87
2021/11/23 06:09:06;;;;;;;28.13;22.92;;;;;;;;;;5090137;28;20414;-86
2021/11/23 06:11:32;;;;;;;30.90;22.35;;;3.30;99.90;;;;;;5090548;28;20486;-86
2021/11/23 06:13:58;;;;;;;26.63;21.45;;;;;;;;;;5091030;28;20386;-89
2021/11/23 06:16:24;;;;;;;25.47;21.77;;;3.70;99.90;;;;;;5091544;28;21057;-88
2021/11/23 06:18:49;;;;;;;27.00;21.53;;;3.40;99.90;;;;;;5091961;28;20386;-88
2021/11/23 06:21:15;;;;;;;29.40;21.80;;;3.40;99.90;;;;;;5090112;28;20485;-87
2021/11/23 06:23:41;;;;;;;24.80;22.10;;;3.60;99.90;;;;;;5086461;28;20404;-88
2021/11/23 06:26:08;;;;;;;26.57;22.50;;;3.50;99.90;;;;;;5084255;28;20493;-87
2021/11/23 06:28:34;;;;;;;25.60;22.02;;;;;;;;;;5076543;28;20380;-89
2021/11/23 06:31:00;;;;;;;29.30;21.88;;;;;;;;;;5093147;28;20386;-88
2021/11/23 06:33:26;;;;;;;26.95;21.40;;;;;;;;;;5091609;28;20481;-88
2021/11/23 06:35:52;;;;;;;26.17;20.80;;;3.40;99.90;;;;;;5094571;28;20386;-88
2021/11/23 06:38:18;;;;;;;23.40;20.70;;;;;;;;;;5095907;28;20388;-88
2021/11/23 06:40:43;;;;;;;22.80;19.40;;;3.60;99.90;;;;;;5094681;28;20881;-86
2021/11/23 06:43:10;;;;;;;28.50;20.73;;;;;;;;;;5093188;28;20394;-87
2021/11/23 06:45:37;;;;;;;27.08;20.88;;;3.70;99.90;;;;;;5094590;28;20414;-87
2021/11/23 06:48:04;;;;;;;23.05;19.58;;;3.60;99.90;;;;;;5095358;28;20397;-89
2021/11/23 06:50:33;;;;;;;21.92;19.10;;;3.60;99.90;;;;;;5095167;28;20393;-87
2021/11/23 06:56:21;;;;;;;21.90;19.55;;;3.60;99.90;;;;;;5093797;28;20775;-87
2021/11/23 06:58:47;;;;;;;22.38;19.98;;;3.80;99.90;;;;;;5093098;28;20471;-88
2021/11/23 07:01:13;;;;;;;30.80;21.80;;;3.60;99.90;;;;;;5092588;28;20382;-86
2021/11/23 07:03:39;;;;;;;26.50;19.60;;;3.70;99.90;;;;;;5092088;28;20390;-87
2021/11/23 07:06:05;;;;;;;26.50;20.90;;;;;;;;;;5092998;28;20422;-87
2021/11/23 07:08:31;;;;;;;26.52;22.00;;;3.50;99.90;;;;;;5093295;28;20489;-86
2021/11/23 07:10:57;;;;;;;;;;;3.00;99.90;;;;;;5094073;28;20043;-88
2021/11/23 07:13:22;;;;;;;;;;;3.60;99.90;;;;;;4740859;28;10000206;-87
2021/11/23 07:15:48;;;;;;;;;;;3.40;99.90;;;;;;5091661;28;19904;-86
2021/11/23 07:18:14;;;;;;;;;;;3.50;99.90;;;;;;5092602;28;19904;-87
2021/11/23 07:20:39;;;;;;;;;;;3.60;99.90;;;;;;5092443;28;19908;-85
2021/11/23 07:23:05;;;;;;;;;;;3.10;99.90;;;;;;5090531;28;20293;-87
2021/11/23 07:25:31;;;;;;;;;;;3.20;99.90;;;;;;5090754;28;19912;-88
2021/11/23 07:27:58;;;;;;;;;;;3.20;99.90;;;;;;5092872;28;19915;-88
2021/11/23 07:30:23;;;;;;;;;;;3.10;99.90;;;;;;5090953;28;20227;-89
2021/11/23 07:32:49;;;;;;;;;;;3.30;99.90;;;;;;5091841;28;19904;-87
2021/11/23 07:35:18;;;;;;;;;;;3.10;99.90;;;;;;5091117;28;19957;-85
2021/11/23 07:37:44;;;;;;;;;;;3.10;99.90;;;;;;5091963;28;19904;-87
2021/11/23 07:40:10;;;;;;;;;;;3.00;99.90;;;;;;5091636;28;19910;-86
2021/11/23 07:42:36;;;;;;;;;;;3.20;99.90;;;;;;5091098;28;19984;-87
2021/11/23 07:45:02;;;;;;;;;;;3.00;99.90;;;;;;5089993;28;19912;-84
2021/11/23 07:47:28;;;;;;;;;;;2.90;99.90;;;;;;5091400;28;19999;-85
2021/11/23 07:49:53;;;;;;;;;;;3.10;99.90;;;;;;5090350;28;19970;-87
2021/11/23 07:52:19;;;;;;;;;;;3.10;99.90;;;;;;5086379;28;19974;-88
2021/11/23 07:54:44;;;;;;;;;;;3.00;99.90;;;;;;5082534;28;19904;-86
2021/11/23 07:57:09;;;;;;;;;;;3.60;99.90;;;;;;5069600;28;19911;-86
2021/11/23 07:59:35;;;;;;;;;;;3.60;99.90;;;;;;5070844;28;19998;-86
2021/11/23 08:02:01;;;;;;;;;;;3.30;99.90;;;;;;5071695;28;20002;-85
2021/11/23 08:04:26;;;;;;;;;;;3.10;99.90;;;;;;5088175;28;19912;-85
2021/11/23 08:06:52;;;;;;;;;;;3.10;99.90;;;;;;5090651;28;20116;-85
2021/11/23 08:09:18;;;;;;;;;;;3.00;99.90;;;;;;5090104;28;19920;-89
2021/11/23 08:11:44;;;;;;;;;;;3.20;99.90;;;;;;5090991;28;19904;-91
2021/11/23 08:14:09;;;;;;;;;;;3.10;99.90;;;;;;5092427;28;19908;-91
2021/11/23 08:16:38;;;;;;;;;;;3.00;99.90;;;;;;5093504;28;19949;-92
2021/11/23 08:25:10;;;;;;;;;;;4.20;99.90;;;;;;5077087;28;19946;-91
2021/11/23 08:27:35;;;;;;;;;;;3.80;99.90;;;;;;5076734;28;19987;-89
2021/11/23 08:30:02;;;;;;;;;;;3.50;99.90;;;;;;5076230;28;19905;-90
2021/11/23 08:32:31;;;;;;;;;;;4.40;99.90;;;;;;5077642;28;20088;-92
2021/11/23 08:34:56;;;;;;;;;;;3.50;99.90;;;;;;5082650;28;19924;-92
2021/11/23 08:37:26;;;;;;;;;;;3.00;99.90;;;;;;5090340;28;19904;-92
2021/11/23 08:39:51;;;;;;;;;;;3.40;99.90;;;;;;5092424;28;19904;-91
2021/11/23 08:42:20;;;;;;;;;;;3.10;99.90;;;;;;5088085;28;19911;-92
2021/11/23 08:44:46;;;;;;;;;;;3.40;99.90;;;;;;5083445;28;19950;-88
2021/11/23 08:47:15;;;;;;;;;;;5.60;99.90;;;;;;5090820;28;19905;-91
2021/11/23 08:49:41;;;;;;;;;;;3.60;99.90;;;;;;5099413;28;19907;-91
2021/11/23 08:52:06;;;;;;;;;;;2.80;99.90;;;;;;5102479;28;20018;-90
2021/11/23 08:54:33;;;;;;;;;;;3.70;99.90;;;;;;5104539;28;20329;-91
2021/11/23 08:57:08;;;;;;;;;;;5.30;99.90;;;;;;5102559;28;19998;-88
2021/11/23 08:59:44;;;;;;;;;;;3.70;99.90;;;;;;5104170;28;19911;-91
2021/11/23 09:02:13;;;;;;;;;;;3.80;99.90;;;;;;5106438;28;19908;-89
2021/11/23 09:04:40;;;;;;;;;;;3.90;99.90;;;;;;5101027;28;19912;-89
2021/11/23 09:07:08;;;;;;;;;;;4.70;99.90;;;;;;5096669;28;19922;-88
2021/11/23 09:09:35;;;;;;;;;;;3.60;99.90;;;;;;5096905;28;19917;-87
2021/11/23 09:12:03;;;;;;;;;;;4.00;99.90;;;;;;5101537;28;19904;-86
2021/11/23 09:14:30;;;;;;;;;;;4.00;99.90;;;;;;5097009;28;19949;-85
2021/11/23 09:16:57;;;;;;;;;;;3.90;99.90;;;;;;4742416;28;10000276;-86
2021/11/23 09:19:22;;;;;;;;;;;3.40;99.90;;;;;;5094200;28;20183;-85
2021/11/23 09:21:47;;;;;;;;;;;4.20;99.90;;;;;;5092502;28;20007;-85
2021/11/23 09:24:13;;;;;;;;;;;4.00;99.90;;;;;;5093785;28;19950;-86
2021/11/23 09:26:38;;;;;;;;;;;4.00;99.90;;;;;;5094434;28;19911;-87
2021/11/23 09:35:13;;;;;;;;;;;4.50;99.90;;;;;;5107688;28;20369;-88
2021/11/23 09:37:39;;;;;;;;;;;4.50;99.90;;;;;;5109238;28;19904;-89
2021/11/23 09:40:18;;;;;;;;;;;4.00;99.90;;;;;;5111622;28;19958;-88
2021/11/23 09:42:46;;;;;;;;;;;4.70;99.90;;;;;;5112803;28;19904;-89
2021/11/23 09:45:12;;;;;;;;;;;4.60;99.90;;;;;;5105253;28;20007;-90
2021/11/23 09:47:37;;;;;;;;;;;4.30;99.90;;;;;;5097349;28;19912;-89
2021/11/23 09:50:03;;;;;;;;;;;4.40;99.90;;;;;;5107606;28;19904;-87
2021/11/23 09:52:31;;;;;;;;;;;4.40;99.90;;;;;;5107629;28;20270;-89
2021/11/23 09:54:57;;;;;;;;;;;4.60;99.90;;;;;;5109644;28;19911;-88
2021/11/23 09:57:23;;;;;;;;;;;4.50;99.90;;;;;;5107923;28;19908;-88
2021/11/23 09:59:48;;;;;;;;;;;3.70;99.90;;;;;;5107105;28;19904;-88
2021/11/23 10:02:23;;;;;;;;;;;3.80;99.90;;;;;;5104356;28;19904;-90
2021/11/23 10:04:55;;;;;;;;;;;4.90;99.90;;;;;;5101736;28;19912;-87
2021/11/23 10:07:21;;;;;;;;;;;4.60;99.90;;;;;;5103521;28;19995;-89
2021/11/23 10:09:52;;;;;;;;;;;4.00;99.90;;;;;;5102039;28;19954;-89
2021/11/23 10:12:22;;;;;;;;;;;6.00;99.90;;;;;;5095969;28;20311;-85
2021/11/23 10:15:06;;;;;;;;;;;4.70;99.90;;;;;;5093856;28;19954;-86
2021/11/23 10:17:31;;;;;;;;;;;4.70;99.90;;;;;;5095535;28;19951;-87
2021/11/23 10:19:57;;;;;;;;;;;4.40;99.90;;;;;;5095650;28;19904;-86
2021/11/23 10:22:33;;;;;;;;;;;4.80;99.90;;;;;;5095273;28;20346;-86
2021/11/23 10:25:03;;;;;;;;;;;4.80;99.90;;;;;;5098660;28;19919;-85
2021/11/23 10:27:30;;;;;;;;;;;4.70;99.90;;;;;;5095112;28;19908;-84
2021/11/23 10:29:57;;;;;;;;;;;4.90;99.90;;;;;;5094762;28;19904;-85
2021/11/23 10:32:23;;;;;;;;;;;4.90;99.90;;;;;;4739840;28;10000438;-84
2021/11/23 10:34:49;;;;;;;;;;;4.70;99.90;;;;;;5092617;28;20246;-85
2021/11/23 10:37:27;;;;;;;;;;;5.20;99.90;;;;;;5092024;28;19953;-84
2021/11/23 10:39:53;;;;;;;;;;;5.30;99.90;;;;;;5092070;28;19922;-86
2021/11/23 10:45:59;;;;;;;;;;;5.30;99.90;;;;;;5071477;28;20011;-85
2021/11/23 10:48:25;;;;;;;;;;;5.40;99.90;;;;;;5082437;28;19908;-84
2021/11/23 10:50:57;;;;;;;;;;;5.00;99.90;;;;;;5087507;28;19908;-86
2021/11/23 10:53:23;;;;;;;;;;;5.30;99.90;;;;;;5071409;28;19908;-86
2021/11/23 10:55:49;;;;;;;;;;;5.00;99.90;;;;;;5070889;28;19916;-85
2021/11/23 10:58:15;;;;;;;;;;;5.60;99.90;;;;;;5071492;28;20000;-86
2021/11/23 11:00:43;;;;;;;;;;;5.00;99.90;;;;;;5071442;28;19955;-86
2021/11/23 11:03:11;;;;;;;;;;;5.70;99.90;;;;;;5071388;28;20355;-87
2021/11/23 11:05:41;;;;;;;;;;;5.00;99.90;;;;;;5071721;28;20373;-85
2021/11/23 11:08:07;;;;;;;;;;;5.20;99.90;;;;;;5069302;28;19970;-86
2021/11/23 11:10:34;;;;;;;;;;;4.80;99.90;;;;;;5071010;28;20367;-84
2021/11/23 11:13:01;;;;;;;;;;;5.30;99.90;;;;;;5071170;28;19923;-85
2021/11/23 11:15:31;;;;;;;;;;;5.40;99.90;;;;;;5071095;28;19915;-85
2021/11/23 11:17:57;;;;;;;;;;;5.40;99.90;;;;;;5069431;28;19909;-84
2021/11/23 11:20:33;;;;;;;31.75;24.23;;;5.60;99.90;;;;;;5067211;28;20396;-85
2021/11/23 11:23:12;;;;;;;35.13;27.77;;;5.70;99.90;;;;;;5088971;28;20417;-87
2021/11/23 11:26:02;;;;;;;37.38;27.35;;;5.80;99.90;;;;;;5085931;28;20935;-87
2021/11/23 11:28:48;;;;;;;37.13;25.67;;;5.70;99.90;;;;;;5090862;28;20449;-87
2021/11/23 11:31:48;;;;;;;36.28;25.98;;;5.80;99.90;;;;;;5083485;28;20388;-87
2021/11/23 11:34:17;;;;;;;;;;;5.90;99.90;;;;;;5073292;28;20074;-87
2021/11/23 11:36:44;;;;;;;;;;;5.80;99.90;;;;;;5077953;28;20270;-83
2021/11/23 11:39:09;;;;;;;;;;;5.40;99.90;;;;;;5092197;28;19950;-86
2021/11/23 11:41:36;;;;;;;;;;;6.30;99.90;;;;;;5094640;28;20305;-90
2021/11/23 11:44:14;;;;;;;;;;;5.70;99.90;;;;;;5099666;28;19903;-91
2021/11/23 11:46:42;;;;;;;;;;;5.80;99.90;;;;;;5098273;28;19904;-89
2021/11/23 11:49:08;;;;;;;;;;;5.70;99.90;;;;;;5095845;28;19979;-90
2021/11/23 11:51:40;;;;;;;;;;;5.50;99.90;;;;;;5094036;28;20363;-88
2021/11/23 11:57:45;;;;;;;;;;;5.80;99.90;;;;;;5095056;28;20330;-88
2021/11/23 12:00:22;;;;;;;;;;;5.80;99.90;;;;;;5032803;28;19905;-89
2021/11/23 12:02:48;;;;;;;;;;;5.70;99.90;;;;;;5081974;28;20295;-88
2021/11/23 12:05:15;;;;;;;;;;;4.40;99.90;;;;;;5095193;28;19965;-90
2021/11/23 12:07:42;;;;;;;;;;;5.60;99.90;;;;;;5094603;28;19915;-88
2021/11/23 12:10:30;;;;;;;;;;;6.30;99.90;;;;;;5092009;28;19916;-87
2021/11/23 12:12:55;;;;;;;;;;;5.30;99.90;;;;;;5093683;28;19904;-89
2021/11/23 12:15:24;;;;;;;;;;;4.50;99.90;;;;;;5094831;28;19972;-89
2021/11/23 12:18:10;;;;;;;;;;;5.20;99.90;;;;;;5094675;28;19911;-90
2021/11/23 12:20:43;;;;;;;;;;;5.60;99.90;;;;;;5094539;28;20040;-90
2021/11/23 12:23:13;;;;;;;;;;;5.60;99.90;;;;;;5100560;28;19903;-90
2021/11/23 12:25:49;;;;;;;;;;;5.60;99.90;;;;;;5099894;28;19912;-88
2021/11/23 12:28:15;;;;;;;;;;;5.30;99.90;;;;;;5099105;28;19904;-88
2021/11/23 12:30:40;;;;;;;;;;;5.10;99.90;;;;;;5098005;28;19957;-87
2021/11/23 12:33:07;;;;;;;;;;;5.70;99.90;;;;;;5098118;28;19904;-87
2021/11/23 12:35:37;;;;;;;;;;;5.80;99.90;;;;;;5097671;28;19951;-87
2021/11/23 12:38:02;;;;;;;;;;;5.40;99.90;;;;;;5095133;28;19908;-87
2021/11/23 12:40:28;;;;;;;;;;;6.30;99.90;;;;;;5095327;28;19908;-86
2021/11/23 12:42:55;;;;;;;;;;;6.00;99.90;;;;;;5096779;28;19965;-87
2021/11/23 12:45:21;;;;;;;;;;;5.30;99.90;;;;;;5096777;28;19919;-88
2021/11/23 12:47:49;;;;;;;;;;;5.40;99.90;;;;;;5098078;28;20006;-86
2021/11/23 12:50:14;;;;;;;;;;;5.70;99.90;;;;;;5097523;28;19957;-87
2021/11/23 12:52:40;;;;;;;;;;;5.50;99.90;;;;;;5097586;28;19904;-87
2021/11/23 12:55:05;;;;;;;;;;;6.10;99.90;;;;;;5097518;28;19973;-88
2021/11/23 12:57:31;;;;;;;50.47;26.67;;;6.10;99.90;;;;;;5099408;28;20191;-91
2021/11/23 13:00:06;;;;;;;40.97;24.87;;;5.90;99.90;;;;;;5099907;28;20169;-89
2021/11/23 13:02:32;;;;;;;52.55;24.23;;;6.30;99.90;;;;;;5094946;28;20196;-87
2021/11/23 13:05:06;;;;;;;49.23;27.50;;;6.40;99.90;;;;;;5095721;28;20202;-87
2021/11/23 13:11:32;;;;;;;60.15;27.50;;;7.00;99.90;;;;;;4046507;28;22426;-88
2021/11/23 13:14:14;;;;;;;55.97;30.38;;;6.40;99.90;;;;;;5057159;28;20196;-86
2021/11/23 13:16:45;;;;;;;66.20;32.15;;;6.20;99.90;;;;;;5058938;28;20279;-90
2021/11/23 13:19:11;;;;;;;66.00;31.13;;;5.30;99.90;;;;;;5058378;28;20160;-86
2021/11/23 13:21:39;;;;;;;57.23;30.10;;;7.80;99.90;;;;;;5057145;28;20225;-88
2021/11/23 13:24:08;;;;;;;53.27;29.17;;;5.00;99.90;;;;;;4347893;28;10000698;-89
2021/11/23 13:26:33;;;;;;;51.78;30.38;;;8.00;99.90;;;;;;5037995;28;20187;-88
2021/11/23 13:29:02;;;;;;;59.67;31.83;;;5.80;99.90;;;;;;5035580;28;20198;-89
2021/11/23 13:31:31;;;;;;;61.70;33.20;;;5.40;99.90;;;;;;5044164;28;20202;-90
2021/11/23 13:34:10;;;;;;;57.72;31.52;;;6.40;99.90;;;;;;5055291;28;20274;-89
2021/11/23 13:36:42;;;;;;;62.65;31.55;;;6.00;99.90;;;;;;5058584;28;20178;-90
2021/11/23 13:39:13;;;;;;;46.38;27.25;;;6.10;99.90;;;;;;5055627;28;20195;-89
2021/11/23 13:41:42;;;;;;;52.08;27.23;;;5.70;99.90;;;;;;5056032;28;20171;-89
2021/11/23 13:44:09;;;;;;;59.90;28.73;;;6.00;99.90;;;;;;5057938;28;20163;-90
2021/11/23 13:46:39;;;;;;;63.10;29.73;;;6.10;99.90;;;;;;5061940;28;20258;-89
2021/11/23 13:49:08;;;;;;;56.25;29.58;;;6.10;99.90;;;;;;5059556;28;20171;-88
2021/11/23 13:51:34;;;;;;;51.53;28.90;;;;;;;;;;5057985;28;20183;-88
2021/11/23 13:54:06;;;;;;;58.53;29.77;;;6.20;99.90;;;;;;5057573;28;20170;-86
2021/11/23 13:56:35;;;;;;;54.85;26.88;;;6.00;99.90;;;;;;5057011;28;20262;-89
2021/11/23 13:59:05;;;;;;;67.65;31.25;;;6.10;99.90;;;;;;5054559;28;20646;-90
2021/11/23 14:01:37;;;;;;;62.25;28.55;;;;;;;;;;5053357;28;20176;-90
2021/11/23 14:04:07;;;;;;;59.63;31.38;;;6.10;99.90;;;;;;5055017;28;20612;-89
2021/11/23 14:06:59;;;;;;;64.20;30.90;;;6.00;99.90;;;;;;5055715;28;20265;-89
2021/11/23 14:09:25;;;;;;;62.60;30.65;;;6.50;99.90;;;;;;5051433;28;20524;-89
2021/11/23 14:12:02;;;;;;;65.03;32.50;;;5.90;99.90;;;;;;5059805;28;20233;-88
2021/11/23 14:14:28;;;;;;;65.57;33.38;;;5.20;99.90;;;;;;5080913;28;20473;-87
2021/11/23 14:16:55;;;;;;;65.72;33.22;;;;;;;;;;5093280;28;20491;-88
2021/11/23 14:22:48;;;;;;;77.57;33.45;;;6.00;99.90;;;;;;5077844;28;20194;-90
2021/11/23 14:25:23;;;;;;;64.47;32.92;;;5.40;99.90;;;;;;5084014;28;20217;-89
2021/11/23 14:28:00;;;;;;;80.05;36.40;;;6.00;99.90;;;;;;5091835;28;20276;-86
2021/11/23 14:30:27;;;;;;;76.15;33.95;;;;;;;;;;5075773;28;20186;-87
2021/11/23 14:32:53;;;;;;;75.60;34.47;;;;;;;;;;5071468;28;20269;-87
2021/11/23 14:35:18;;;;;;;71.22;32.80;;;6.00;99.90;;;;;;5071335;28;20167;-87
2021/11/23 14:37:44;;;;;;;73.77;32.13;;;6.20;99.90;;;;;;5071700;28;20661;-87
2021/11/23 14:40:11;;;;;;;63.93;30.97;;;5.50;99.90;;;;;;5071737;28;20174;-87
2021/11/23 14:42:37;;;;;;;76.30;36.25;;;6.30;99.90;;;;;;5071920;28;20206;-86
2021/11/23 14:45:06;;;;;;;76.50;35.00;;;5.70;99.90;;;;;;5070365;28;20328;-86
2021/11/23 14:47:32;;;;;;;82.78;34.13;;;5.30;99.90;;;;;;5072600;28;20517;-89
2021/11/23 14:49:58;;;;;;;80.00;33.27;;;;;;;;;;5072531;28;20296;-87